Aérodrome :
LOGIN :

S'inscrire | Disclaimer

   EN    FR    IT 

 










Légende :    VFR   VFR Marginal   IFR   IFR Intensif   IFR Très Intensif
Visi : 
Plafond : 
>= 8 km
>= 3000ft
5 à 8 km
1000 à 3000 ft
1500m à 5 km
500 à 1000 ft
800 à 1500m
200 à 500 ft
< 800m
< 200 ft
Symboles :   Orages  Brouillard  Fortes neiges  Fortes précipitations  Vent > 20 kt
SIGMETs :   Divers  Orages  Givrage  Turbulence  Onde Orograph.  Cendres Volcan.







- Altitude de l'aérodrome : 989 ft
- Code IATA : TRN


LIMF - Torino Caselle

DERNIER METAR :
  • 270550Z 35003KT 9999 SCT035 BKN100 16/13 Q1011

METARs EXPIRÉS :
  • 270520Z 01003KT 350V050 9999 SCT040 BKN100 15/12 Q1011
  • 270450Z 31004KT 9999 SCT040 BKN100 15/11 Q1011
  • 270420Z VRB02KT 9999 BKN100 15/12 Q1011
  • 270350Z VRB02KT 9999 FEW065 BKN100 15/11 Q1011
  • 270320Z 31004KT 9999 BKN100 15/11 Q1011
  • 270250Z 30003KT 9999 BKN100 16/11 Q1011

TAF TAF LIMF
Valide du 27 à 06h jusqu'au 28 à 06h UTC


270500Z 2706/2806 VRB05KT 9999 SCT050 BKN090
PROB40
TEMPO 2706/2709 SHRA
TEMPO 2709/2715 RA
BECMG 2721/2724 3500 BR
TEMPO 2802/2806 2000 BCFG
Pas de NOTAMs connus pour ce terrain.



MET'MAP, la Météo Aéronautique d'un coup d'oeil ! - Copyright ORBIFLY Décembre 2007 - Disclaimer

ORBIFLY MET'MAP TEAM :

Programmation & Développement : Alexandra Zaïnal
Conception & Développement : Baudouin d'Aumeries
Co-Programmation & Développement : Marc-Olivier Méhu
Soutien technique & logistique : Manuel Goepfert

Contact : metmap@orbifly.com




SOURCES & CREDITS :

   NOAA